Time;durP1;ratioP1;P1;durP2;ratioP2;P2;SDS_P1;SDS_P2;PMS_P1;PMS_P2;Temp;Humidity;BMP_temperature;BMP_pressure;BME280_temperature;BME280_humidity;BME280_pressure;Samples;Min_cycle;Max_cycle;Signal;HPM_P1;HPM_P2
2023/08/19 00:02:14;;;;;;;10.43;9.32;;;23.00;99.90;;;;;;5077063;28;20312;-87
2023/08/19 00:05:05;;;;;;;10.10;9.20;;;23.00;45.60;;;;;;5099262;28;20219;-86
2023/08/19 00:07:54;;;;;;;12.10;9.43;;;23.00;58.40;;;;;;5087231;28;20306;-84
2023/08/19 00:10:43;;;;;;;10.45;9.30;;;23.10;99.90;;;;;;5071387;28;20228;-86
2023/08/19 00:13:32;;;;;;;10.00;9.00;;;23.00;67.40;;;;;;5083816;28;20223;-84
2023/08/19 00:16:21;;;;;;;11.75;9.23;;;23.10;99.90;;;;;;5084494;28;20318;-85
2023/08/19 00:19:11;;;;;;;10.20;8.63;;;23.00;49.60;;;;;;5075411;28;20226;-83
2023/08/19 00:22:01;;;;;;;13.15;9.23;;;23.00;1.00;;;;;;5087287;28;20288;-86
2023/08/19 00:24:50;;;;;;;9.93;8.77;;;22.90;55.70;;;;;;5094983;28;20219;-87
2023/08/19 00:27:39;;;;;;;10.60;9.50;;;22.90;1.00;;;;;;5073501;28;20659;-89
2023/08/19 00:30:28;;;;;;;9.38;8.52;;;22.80;13.80;;;;;;5078532;28;20228;-88
2023/08/19 00:33:17;;;;;;;11.05;9.88;;;22.90;99.90;;;;;;5077578;28;20257;-84
2023/08/19 00:36:06;;;;;;;10.50;9.00;;;22.90;99.90;;;;;;5078318;28;20291;-86
2023/08/19 00:38:56;;;;;;;10.25;9.25;;;22.90;1.00;;;;;;5095912;28;20207;-86
2023/08/19 00:41:48;;;;;;;12.80;9.18;;;22.90;66.00;;;;;;5076295;28;20235;-86
2023/08/19 00:44:37;;;;;;;9.70;8.80;;;23.00;99.90;;;;;;5083549;28;20230;-83
2023/08/19 00:47:26;;;;;;;10.13;8.70;;;22.90;1.00;;;;;;5093527;28;20773;-84
2023/08/19 00:50:16;;;;;;;10.55;9.18;;;22.80;1.00;;;;;;5089794;28;20298;-84
2023/08/19 00:53:06;;;;;;;9.80;8.90;;;22.90;99.90;;;;;;5067078;28;20227;-84
2023/08/19 00:55:56;;;;;;;9.75;8.85;;;23.00;99.90;;;;;;5076945;28;20288;-84
2023/08/19 00:58:46;;;;;;;9.85;8.85;;;22.90;99.90;;;;;;5076258;28;20228;-83
2023/08/19 01:01:35;;;;;;;10.27;9.23;;;22.90;97.00;;;;;;5080319;28;20236;-83
2023/08/19 01:04:27;;;;;;;9.82;8.82;;;22.90;99.90;;;;;;5080770;28;20244;-83
2023/08/19 01:07:28;;;;;;;10.95;9.25;;;22.90;99.90;;;;;;5076130;28;20224;-85
2023/08/19 01:10:24;;;;;;;9.65;8.75;;;22.80;41.90;;;;;;5085772;28;20219;-85
2023/08/19 01:13:15;;;;;;;9.88;8.95;;;22.90;99.90;;;;;;5075547;28;20215;-85
2023/08/19 01:16:12;;;;;;;9.80;8.88;;;22.90;89.30;;;;;;5077195;28;20415;-85
2023/08/19 01:19:01;;;;;;;10.90;9.80;;;22.80;99.90;;;;;;5086804;28;20276;-86
2023/08/19 01:21:53;;;;;;;10.15;9.25;;;22.80;69.80;;;;;;5085497;28;20232;-86
2023/08/19 01:24:45;;;;;;;12.77;9.00;;;22.90;99.90;;;;;;5071417;28;20832;-88
2023/08/19 01:27:34;;;;;;;10.55;8.65;;;22.90;99.90;;;;;;5065228;28;20235;-84
2023/08/19 01:30:25;;;;;;;9.75;8.75;;;23.00;99.90;;;;;;5080134;28;20274;-85
2023/08/19 01:33:15;;;;;;;12.35;9.15;;;22.90;13.10;;;;;;5068926;28;20302;-87
2023/08/19 01:36:12;;;;;;;10.45;9.45;;;22.90;1.00;;;;;;5071680;28;20220;-87
2023/08/19 01:39:03;;;;;;;9.45;8.65;;;22.90;1.00;;;;;;5091742;28;20365;-86
2023/08/19 01:41:54;;;;;;;9.60;8.70;;;22.90;99.90;;;;;;5073609;28;20226;-86
2023/08/19 01:44:44;;;;;;;9.85;8.70;;;22.90;46.60;;;;;;5085786;28;20707;-86
2023/08/19 01:47:33;;;;;;;10.38;9.32;;;22.90;99.90;;;;;;5060967;28;20220;-85
2023/08/19 01:50:25;;;;;;;9.85;8.82;;;22.90;95.00;;;;;;5084596;28;20392;-86
2023/08/19 01:53:14;;;;;;;10.35;9.13;;;22.90;99.90;;;;;;5070685;28;20237;-87
2023/08/19 01:56:03;;;;;;;9.65;8.60;;;22.80;1.00;;;;;;5085401;28;20222;-86
2023/08/19 01:58:54;;;;;;;10.40;8.70;;;22.80;4.80;;;;;;5066247;28;20272;-86
2023/08/19 02:01:44;;;;;;;9.52;8.23;;;22.80;99.90;;;;;;5076706;28;20231;-86
2023/08/19 02:04:33;;;;;;;10.65;8.77;;;22.70;99.90;;;;;;5074930;28;20230;-87
2023/08/19 02:07:22;;;;;;;9.75;8.85;;;22.70;87.00;;;;;;5067893;28;20230;-86
2023/08/19 02:10:12;;;;;;;10.15;9.07;;;22.70;99.90;;;;;;5084651;28;20214;-87
2023/08/19 02:13:01;;;;;;;12.07;8.93;;;22.70;99.90;;;;;;5078181;28;20219;-88
2023/08/19 02:15:51;;;;;;;10.25;9.25;;;22.70;99.90;;;;;;5049741;28;20231;-89
2023/08/19 02:18:41;;;;;;;10.40;9.32;;;22.80;99.90;;;;;;5080288;28;20364;-88
2023/08/19 02:21:30;;;;;;;9.95;8.70;;;22.80;99.90;;;;;;5079682;28;20774;-89
2023/08/19 02:24:19;;;;;;;10.27;9.05;;;22.80;99.90;;;;;;5084001;28;20935;-89
2023/08/19 02:27:08;;;;;;;10.15;9.10;;;22.80;99.90;;;;;;5080353;28;20224;-89
2023/08/19 02:29:56;;;;;;;10.98;9.48;;;22.80;99.90;;;;;;5086704;28;20227;-89
2023/08/19 02:32:47;;;;;;;10.25;9.25;;;22.70;98.90;;;;;;5069566;28;20211;-88
2023/08/19 02:35:36;;;;;;;10.52;9.43;;;22.80;99.90;;;;;;5084829;28;20239;-89
2023/08/19 02:38:26;;;;;;;10.20;9.20;;;22.70;46.80;;;;;;5089796;28;20364;-88
2023/08/19 02:41:14;;;;;;;10.40;9.32;;;22.70;97.70;;;;;;5080584;28;20802;-85
2023/08/19 02:44:04;;;;;;;9.77;8.77;;;22.70;99.90;;;;;;5063972;28;20227;-86
2023/08/19 02:46:53;;;;;;;10.85;9.73;;;22.60;59.50;;;;;;5080969;28;20368;-84
2023/08/19 02:49:43;;;;;;;11.02;9.30;;;22.70;99.90;;;;;;5068351;28;20320;-84
2023/08/19 02:52:32;;;;;;;9.98;9.05;;;22.60;42.20;;;;;;5075481;28;20265;-84
2023/08/19 02:55:21;;;;;;;11.02;9.10;;;22.60;70.40;;;;;;5082409;28;20224;-84
2023/08/19 02:58:13;;;;;;;10.57;9.30;;;22.70;99.90;;;;;;5074543;28;20226;-85
2023/08/19 03:01:03;;;;;;;10.13;9.02;;;22.70;99.90;;;;;;5071459;28;20226;-83
2023/08/19 03:03:52;;;;;;;10.45;9.30;;;22.60;37.30;;;;;;5088289;28;20258;-84
2023/08/19 03:06:42;;;;;;;10.50;9.40;;;22.60;22.10;;;;;;5087423;28;20223;-84
2023/08/19 03:09:31;;;;;;;10.40;9.40;;;22.60;99.90;;;;;;5075735;28;20359;-84
2023/08/19 03:12:21;;;;;;;10.85;9.75;;;22.60;99.90;;;;;;5090226;28;20254;-83
2023/08/19 03:15:11;;;;;;;12.45;11.10;;;22.50;95.80;;;;;;5066776;28;20223;-81
2023/08/19 03:18:00;;;;;;;12.55;9.82;;;22.50;99.90;;;;;;5071542;28;20234;-84
2023/08/19 03:20:56;;;;;;;13.05;10.70;;;22.40;99.90;;;;;;5081931;28;20834;-84
2023/08/19 03:23:46;;;;;;;13.68;11.50;;;22.40;99.90;;;;;;5071570;28;20463;-83
2023/08/19 03:26:35;;;;;;;11.95;10.80;;;22.40;99.90;;;;;;5085178;28;20693;-86
2023/08/19 03:29:25;;;;;;;12.73;11.32;;;22.40;99.90;;;;;;5070193;28;20219;-84
2023/08/19 03:32:14;;;;;;;13.18;11.75;;;22.30;99.90;;;;;;5068403;28;20533;-87
2023/08/19 03:35:04;;;;;;;14.85;12.00;;;22.40;1.00;;;;;;5073368;28;20243;-88
2023/08/19 03:37:53;;;;;;;13.05;11.68;;;22.30;1.00;;;;;;5098768;28;20223;-88
2023/08/19 03:40:43;;;;;;;15.18;11.13;;;22.20;1.00;;;;;;5067700;28;20223;-87
2023/08/19 03:43:32;;;;;;;12.55;11.23;;;22.30;99.90;;;;;;5071589;28;20694;-88
2023/08/19 03:46:21;;;;;;;12.73;11.52;;;22.30;99.90;;;;;;5081914;28;20235;-84
2023/08/19 03:49:11;;;;;;;12.95;11.55;;;22.30;99.90;;;;;;5084581;28;20223;-85
2023/08/19 03:52:00;;;;;;;12.57;11.32;;;22.30;99.90;;;;;;5077956;28;20605;-86
2023/08/19 03:54:50;;;;;;;14.10;11.95;;;22.20;1.00;;;;;;5087474;28;20217;-86
2023/08/19 03:57:40;;;;;;;12.88;11.45;;;22.10;1.00;;;;;;5087539;28;20230;-89
2023/08/19 04:00:30;;;;;;;15.00;11.43;;;22.10;1.00;;;;;;5077564;28;20649;-87
2023/08/19 04:03:19;;;;;;;12.98;11.35;;;22.10;82.50;;;;;;5077865;28;20239;-87
2023/08/19 04:06:08;;;;;;;13.07;11.88;;;22.00;2.50;;;;;;5078835;28;20328;-87
2023/08/19 04:08:57;;;;;;;13.18;11.82;;;22.20;99.90;;;;;;5074968;28;20429;-84
2023/08/19 04:11:49;;;;;;;13.38;11.70;;;22.10;99.90;;;;;;5069169;28;20219;-85
2023/08/19 04:14:40;;;;;;;13.27;11.88;;;22.20;94.00;;;;;;5098319;28;20241;-86
2023/08/19 04:17:30;;;;;;;13.07;11.88;;;22.20;99.90;;;;;;5071951;28;20910;-88
2023/08/19 04:20:19;;;;;;;15.60;12.35;;;22.30;99.90;;;;;;5065274;28;20271;-88
2023/08/19 04:23:08;;;;;;;13.15;11.95;;;22.30;1.00;;;;;;5057633;28;20312;-88
2023/08/19 04:25:57;;;;;;;14.25;12.30;;;22.30;52.10;;;;;;5066900;28;20372;-88
2023/08/19 04:28:47;;;;;;;12.15;10.93;;;22.40;99.90;;;;;;5050925;28;20220;-85
2023/08/19 04:31:37;;;;;;;12.13;10.88;;;22.40;50.20;;;;;;5057387;28;20258;-86
2023/08/19 04:34:27;;;;;;;14.20;11.60;;;22.50;6.90;;;;;;5053274;28;20228;-86
2023/08/19 04:37:16;;;;;;;15.40;11.60;;;22.50;23.70;;;;;;5055491;28;20216;-84
2023/08/19 04:40:09;;;;;;;13.05;11.52;;;22.60;39.40;;;;;;5048767;28;20593;-83
2023/08/19 04:43:01;;;;;;;12.85;11.65;;;22.60;33.20;;;;;;5050062;28;20220;-82
2023/08/19 04:45:50;;;;;;;12.45;11.13;;;22.50;1.00;;;;;;5031716;28;20321;-84
2023/08/19 04:48:41;;;;;;;12.20;10.88;;;22.60;16.70;;;;;;5050518;28;20228;-85
2023/08/19 04:51:30;;;;;;;11.80;10.40;;;22.60;22.90;;;;;;5060359;28;20707;-87
2023/08/19 04:54:19;;;;;;;15.63;10.65;;;22.60;75.50;;;;;;5065359;28;20224;-88
2023/08/19 04:57:08;;;;;;;14.98;10.93;;;22.60;1.00;;;;;;5058096;28;20603;-89
2023/08/19 04:59:57;;;;;;;11.55;10.50;;;22.60;55.80;;;;;;5060010;28;20226;-89
2023/08/19 05:02:46;;;;;;;11.90;10.68;;;22.40;14.00;;;;;;5055230;28;20243;-89
2023/08/19 05:05:36;;;;;;;11.88;10.70;;;22.20;31.50;;;;;;5055979;28;20216;-86
2023/08/19 05:08:26;;;;;;;14.23;11.13;;;22.20;99.90;;;;;;5054276;28;20219;-88
2023/08/19 05:11:15;;;;;;;13.02;11.63;;;22.30;99.90;;;;;;5066518;28;20223;-89
2023/08/19 05:14:06;;;;;;;13.05;11.35;;;22.30;99.90;;;;;;5069528;28;20216;-88
2023/08/19 05:16:55;;;;;;;13.13;10.43;;;22.40;99.90;;;;;;5054171;28;20224;-88
2023/08/19 05:19:44;;;;;;;14.02;11.05;;;22.40;99.90;;;;;;5086915;28;20227;-85
2023/08/19 05:22:34;;;;;;;13.18;10.48;;;22.40;99.90;;;;;;5096298;28;20230;-87
2023/08/19 05:25:23;;;;;;;15.55;11.02;;;22.50;99.90;;;;;;5088133;28;20435;-85
2023/08/19 05:28:21;;;;;;;11.65;10.45;;;22.60;99.90;;;;;;5087856;28;20443;-87
2023/08/19 05:31:10;;;;;;;12.43;10.68;;;22.50;87.00;;;;;;5079718;28;20752;-83
2023/08/19 05:33:58;;;;;;;11.98;10.88;;;22.50;99.90;;;;;;5094883;27;20303;-83
2023/08/19 05:36:48;;;;;;;11.43;10.32;;;22.60;95.40;;;;;;5071296;28;20227;-85
2023/08/19 05:39:38;;;;;;;13.77;10.30;;;22.70;99.90;;;;;;5066409;28;20363;-83
2023/08/19 05:42:28;;;;;;;11.77;9.38;;;22.50;1.00;;;;;;5066614;28;20234;-84
2023/08/19 05:45:17;;;;;;;10.43;9.20;;;23.60;1.00;;;;;;5064524;28;20215;-84
2023/08/19 05:48:06;;;;;;;10.35;9.15;;;24.60;1.00;;;;;;5082627;28;20223;-87
2023/08/19 05:50:55;;;;;;;11.40;9.15;;;24.00;1.00;;;;;;5086265;28;20753;-83
2023/08/19 05:53:44;;;;;;;11.70;9.10;;;23.90;1.00;;;;;;5060369;28;20223;-85
2023/08/19 05:56:34;;;;;;;11.80;10.02;;;23.70;1.00;;;;;;5083067;28;20310;-87
2023/08/19 05:59:23;;;;;;;10.23;9.23;;;23.80;1.00;;;;;;5081337;28;20223;-84
2023/08/19 06:02:12;;;;;;;11.30;9.50;;;23.60;1.00;;;;;;5068197;28;20211;-81
2023/08/19 06:05:01;;;;;;;12.63;9.52;;;23.60;1.00;;;;;;5071507;28;20222;-84
2023/08/19 06:07:50;;;;;;;10.45;9.45;;;23.60;1.00;;;;;;5060565;28;20347;-82
2023/08/19 06:10:43;;;;;;;15.57;10.13;;;23.60;1.00;;;;;;5073313;28;20247;-81
2023/08/19 06:13:34;;;;;;;10.57;9.48;;;23.80;1.00;;;;;;5084315;28;20315;-84
2023/08/19 06:16:23;;;;;;;10.82;9.73;;;23.70;1.00;;;;;;5081950;28;20239;-85
2023/08/19 06:19:12;;;;;;;13.05;9.20;;;23.60;1.00;;;;;;5082832;28;20227;-88
2023/08/19 06:22:01;;;;;;;13.00;9.80;;;23.90;1.00;;;;;;5093373;28;20702;-85
2023/08/19 06:24:50;;;;;;;12.88;9.52;;;24.00;1.00;;;;;;5071814;28;20730;-88
2023/08/19 06:27:39;;;;;;;12.65;9.73;;;24.10;1.00;;;;;;5087620;28;20228;-89
2023/08/19 06:30:30;;;;;;;10.07;8.98;;;24.30;1.00;;;;;;5099854;28;20223;-83
2023/08/19 06:33:19;;;;;;;13.57;9.82;;;24.60;1.00;;;;;;5073470;28;20683;-87
2023/08/19 06:36:11;;;;;;;12.18;9.27;;;24.70;1.00;;;;;;5072296;28;20591;-79
2023/08/19 06:39:07;;;;;;;10.30;9.30;;;24.90;1.00;;;;;;5085928;28;20224;-78
2023/08/19 06:42:01;;;;;;;10.20;8.55;;;24.90;1.00;;;;;;5077541;28;20223;-87
2023/08/19 06:44:56;;;;;;;18.75;9.55;;;26.10;99.90;;;;;;5070827;28;20691;-86
2023/08/19 06:47:51;;;;;;;10.82;8.93;;;26.80;99.90;;;;;;5077550;28;20307;-81
2023/08/19 06:50:40;;;;;;;11.50;9.23;;;26.00;99.90;;;;;;5066979;28;20223;-82
2023/08/19 06:53:30;;;;;;;11.93;9.32;;;25.70;99.90;;;;;;5081929;28;20706;-83
2023/08/19 06:56:25;;;;;;;10.73;9.02;;;25.70;99.90;;;;;;5082377;28;20674;-82
2023/08/19 06:59:20;;;;;;;10.80;9.43;;;25.60;99.90;;;;;;5078281;28;20239;-83
2023/08/19 07:02:11;;;;;;;11.05;9.07;;;25.30;99.90;;;;;;5084081;28;20220;-88
2023/08/19 07:05:03;;;;;;;10.75;9.75;;;25.20;99.90;;;;;;5067432;28;20228;-79
2023/08/19 07:07:58;;;;;;;10.57;9.23;;;25.30;1.00;;;;;;5083231;28;20238;-79
2023/08/19 07:10:47;;;;;;;10.70;9.70;;;25.50;99.90;;;;;;5093785;28;20244;-79
2023/08/19 07:13:37;;;;;;;17.75;9.77;;;25.60;99.90;;;;;;5071047;28;20240;-80
2023/08/19 07:16:27;;;;;;;10.93;9.82;;;25.70;99.90;;;;;;5095497;28;20665;-80
2023/08/19 07:19:20;;;;;;;12.73;9.98;;;25.70;99.90;;;;;;5056828;28;20228;-80
2023/08/19 07:22:10;;;;;;;10.98;9.85;;;25.70;99.90;;;;;;5084592;28;20726;-77
2023/08/19 07:25:00;;;;;;;11.70;10.15;;;25.90;99.90;;;;;;5092257;28;20232;-78
2023/08/19 07:27:50;;;;;;;11.63;10.40;;;26.00;99.90;;;;;;5064989;28;20238;-77
2023/08/19 07:30:40;;;;;;;11.20;9.75;;;26.10;99.90;;;;;;5082874;28;20272;-77
2023/08/19 07:33:29;;;;;;;12.25;9.43;;;26.30;99.90;;;;;;5073103;28;20219;-77
2023/08/19 07:36:18;;;;;;;11.13;9.38;;;26.40;99.90;;;;;;5067418;28;20220;-76
2023/08/19 07:39:08;;;;;;;14.52;10.65;;;26.50;99.90;;;;;;5079572;28;20813;-76
2023/08/19 07:41:57;;;;;;;19.77;11.60;;;26.70;99.90;;;;;;5074751;28;20224;-77
2023/08/19 07:44:46;;;;;;;18.17;11.25;;;26.90;99.90;;;;;;5081536;28;20232;-76
2023/08/19 07:47:35;;;;;;;12.80;10.85;;;26.80;99.90;;;;;;5084013;28;20227;-76
2023/08/19 07:50:27;;;;;;;12.27;10.48;;;26.90;99.90;;;;;;5076244;28;20224;-77
2023/08/19 07:53:16;;;;;;;11.32;9.02;;;27.20;99.90;;;;;;5067169;28;20226;-76
2023/08/19 07:56:07;;;;;;;12.18;10.10;;;27.30;99.90;;;;;;5066701;28;20580;-76
2023/08/19 07:58:56;;;;;;;13.82;9.40;;;27.70;99.90;;;;;;5075939;28;20240;-76
2023/08/19 08:01:45;;;;;;;13.07;10.73;;;28.10;99.90;;;;;;5074478;28;20628;-76
2023/08/19 08:04:34;;;;;;;15.73;10.30;;;28.10;99.90;;;;;;5079490;28;20238;-76
2023/08/19 08:07:27;;;;;;;15.23;10.02;;;28.10;99.90;;;;;;5077257;28;20219;-76
2023/08/19 08:10:16;;;;;;;10.75;9.45;;;27.90;99.90;;;;;;5079059;28;20211;-76
2023/08/19 08:13:06;;;;;;;14.48;10.27;;;28.10;99.90;;;;;;5074717;28;20262;-76
2023/08/19 08:15:55;;;;;;;12.77;9.98;;;28.30;99.90;;;;;;5072848;28;20281;-76
2023/08/19 08:18:45;;;;;;;12.75;10.00;;;29.00;99.90;;;;;;5072885;28;20218;-76
2023/08/19 08:21:34;;;;;;;13.60;10.40;;;28.90;99.90;;;;;;5074608;28;21283;-77
2023/08/19 08:24:24;;;;;;;10.95;9.63;;;28.60;99.90;;;;;;5063091;28;20239;-77
2023/08/19 08:27:13;;;;;;;11.35;9.95;;;28.90;99.90;;;;;;5065988;28;21032;-84
2023/08/19 08:30:05;;;;;;;11.25;9.93;;;29.50;99.90;;;;;;5059518;28;20219;-78
2023/08/19 08:32:54;;;;;;;11.73;10.35;;;30.20;99.90;;;;;;5061947;28;20549;-79
2023/08/19 08:35:43;;;;;;;12.90;9.45;;;30.80;99.90;;;;;;5062773;28;20709;-78
2023/08/19 08:38:32;;;;;;;13.48;9.18;;;31.20;99.90;;;;;;5064709;28;20998;-77
2023/08/19 08:41:22;;;;;;;11.80;9.88;;;31.80;99.90;;;;;;5070784;28;20239;-78
2023/08/19 08:44:13;;;;;;;12.27;10.25;;;31.80;99.90;;;;;;5081695;28;20296;-78
2023/08/19 08:47:05;;;;;;;13.40;10.50;;;32.10;99.90;;;;;;5070515;28;20677;-78
2023/08/19 08:49:54;;;;;;;11.32;10.27;;;31.70;99.90;;;;;;5082365;28;20219;-79
2023/08/19 08:52:43;;;;;;;12.18;10.20;;;31.40;99.90;;;;;;5071908;28;20693;-78
2023/08/19 08:55:33;;;;;;;12.10;10.15;;;31.60;99.90;;;;;;5064880;28;20234;-78
2023/08/19 08:58:26;;;;;;;13.40;9.55;;;31.90;99.90;;;;;;5079432;28;20401;-77
2023/08/19 09:01:17;;;;;;;12.88;9.95;;;32.50;99.90;;;;;;5063856;28;20262;-78
2023/08/19 09:04:10;;;;;;;12.10;10.05;;;32.70;99.90;;;;;;5073310;28;20251;-78
2023/08/19 09:07:05;;;;;;;15.57;10.40;;;32.50;99.90;;;;;;5060685;28;20237;-78
2023/08/19 09:09:55;;;;;;;11.43;10.20;;;32.90;99.90;;;;;;5088657;28;20268;-78
2023/08/19 09:12:49;;;;;;;15.82;10.25;;;33.20;99.90;;;;;;5072557;28;20258;-78
2023/08/19 09:15:38;;;;;;;13.10;9.77;;;33.40;99.90;;;;;;5082606;28;20269;-78
2023/08/19 09:18:28;;;;;;;11.65;10.32;;;33.70;99.90;;;;;;5075416;28;20245;-77
2023/08/19 09:21:18;;;;;;;11.02;9.95;;;34.00;99.90;;;;;;5067532;28;20222;-77
2023/08/19 09:24:08;;;;;;;10.85;9.75;;;33.80;99.90;;;;;;5082299;28;20238;-78
2023/08/19 09:26:57;;;;;;;14.75;10.07;;;33.80;99.90;;;;;;5077875;28;20705;-79
2023/08/19 09:29:50;;;;;;;11.85;9.88;;;34.40;99.90;;;;;;5081528;28;20219;-78
2023/08/19 09:32:41;;;;;;;11.30;9.13;;;35.00;99.90;;;;;;5078884;28;20316;-77
2023/08/19 09:35:36;;;;;;;13.80;10.38;;;35.50;99.90;;;;;;5079864;28;20710;-78
2023/08/19 09:38:52;;;;;;;13.07;10.27;;;35.60;99.90;;;;;;5077601;28;20551;-77
2023/08/19 09:41:41;;;;;;;11.30;9.50;;;35.20;99.90;;;;;;5055999;28;20706;-77
2023/08/19 09:44:30;;;;;;;11.65;9.25;;;34.60;99.90;;;;;;5074920;28;20223;-77
2023/08/19 09:47:20;;;;;;;12.70;9.98;;;34.50;99.90;;;;;;5077020;28;20215;-78
2023/08/19 09:50:09;;;;;;;11.18;9.30;;;34.00;99.90;;;;;;5080140;28;20722;-77
2023/08/19 09:53:00;;;;;;;13.73;9.25;;;33.30;99.90;;;;;;5071450;28;20260;-78
2023/08/19 09:55:51;;;;;;;11.25;8.70;;;34.10;99.90;;;;;;5076239;28;20223;-77
2023/08/19 09:58:40;;;;;;;12.00;9.00;;;34.90;99.90;;;;;;5085202;28;20307;-77
2023/08/19 10:01:28;;;;;;;16.33;8.77;;;34.50;99.90;;;;;;5081606;28;20220;-77
2023/08/19 10:04:18;;;;;;;11.75;9.23;;;33.60;99.90;;;;;;5091024;28;20561;-77
2023/08/19 10:07:13;;;;;;;11.98;9.27;;;33.00;99.90;;;;;;5087470;28;20760;-77
2023/08/19 10:10:05;;;;;;;15.32;9.40;;;32.60;99.90;;;;;;5098489;27;20223;-78
2023/08/19 10:12:58;;;;;;;16.02;9.50;;;32.70;99.90;;;;;;5083021;28;20268;-77
2023/08/19 10:15:47;;;;;;;14.63;9.75;;;32.50;99.90;;;;;;5100823;27;20230;-77
2023/08/19 10:18:38;;;;;;;13.25;9.55;;;32.60;99.90;;;;;;5067403;28;20790;-77
2023/08/19 10:21:30;;;;;;;12.05;9.48;;;32.80;99.90;;;;;;5086295;28;20211;-77
2023/08/19 10:24:21;;;;;;;12.57;9.60;;;33.60;99.90;;;;;;5088379;28;20586;-77
2023/08/19 10:27:17;;;;;;;12.77;10.45;;;32.90;99.90;;;;;;5077529;28;20234;-77
2023/08/19 10:30:32;;;;;;;10.70;9.38;;;32.30;99.90;;;;;;5079075;28;20230;-77
2023/08/19 10:33:36;;;;;;;11.90;9.48;;;34.40;99.90;;;;;;5071096;28;20838;-77
2023/08/19 10:36:29;;;;;;;9.65;8.50;;;34.20;99.90;;;;;;5068905;28;20271;-77
2023/08/19 10:39:21;;;;;;;13.38;9.65;;;33.00;99.90;;;;;;5088763;28;21051;-77
2023/08/19 10:42:10;;;;;;;14.80;10.07;;;32.00;99.90;;;;;;5076386;28;20580;-77
2023/08/19 10:44:59;;;;;;;11.50;9.70;;;31.70;99.90;;;;;;5091808;28;20238;-77
2023/08/19 10:47:52;;;;;;;12.48;9.18;;;31.60;99.90;;;;;;5081408;28;20781;-77
2023/08/19 10:50:41;;;;;;;11.52;8.50;;;32.00;99.90;;;;;;5073998;28;20269;-77
2023/08/19 10:53:32;;;;;;;11.68;8.90;;;35.00;99.90;;;;;;5075415;28;21028;-78
2023/08/19 10:56:23;;;;;;;9.40;7.90;;;37.40;99.90;;;;;;5092431;27;20254;-74
2023/08/19 10:59:12;;;;;;;13.23;7.97;;;37.50;99.90;;;;;;5082944;28;20983;-75
2023/08/19 11:02:02;;;;;;;12.68;7.80;;;36.10;99.90;;;;;;5078531;28;20215;-75
2023/08/19 11:04:53;;;;;;;15.75;7.70;;;38.20;99.90;;;;;;5081092;28;20218;-79
2023/08/19 11:07:46;;;;;;;10.25;7.35;;;39.80;99.90;;;;;;5064470;28;20227;-75
2023/08/19 11:10:35;;;;;;;13.40;8.15;;;41.00;99.90;;;;;;5064226;28;20219;-75
2023/08/19 11:13:24;;;;;;;12.68;8.57;;;40.90;99.90;;;;;;5073588;28;20231;-75
2023/08/19 11:16:12;;;;;;;14.68;7.45;;;39.90;99.90;;;;;;5082847;28;20838;-76
2023/08/19 11:19:02;;;;;;;10.80;8.40;;;41.50;99.90;;;;;;5077541;28;20292;-81
2023/08/19 11:21:53;;;;;;;9.57;7.30;;;42.30;99.90;;;;;;5090540;28;20235;-78
2023/08/19 11:24:43;;;;;;;9.70;7.70;;;43.10;99.90;;;;;;5086475;28;20227;-80
2023/08/19 11:27:31;;;;;;;9.40;7.53;;;44.10;99.90;;;;;;5082142;28;20223;-79
2023/08/19 11:30:20;;;;;;;10.57;8.20;;;44.40;99.90;;;;;;5087517;28;20219;-79
2023/08/19 11:33:09;;;;;;;9.15;7.68;;;44.30;99.90;;;;;;5089693;28;20706;-79
2023/08/19 11:35:58;;;;;;;13.75;7.90;;;44.80;99.90;;;;;;5089814;28;20292;-76
2023/08/19 11:38:49;;;;;;;9.05;7.40;;;45.20;99.90;;;;;;5087280;28;20216;-78
2023/08/19 11:41:38;;;;;;;11.15;7.25;;;45.30;99.90;;;;;;5088745;28;20288;-79
2023/08/19 11:44:28;;;;;;;8.35;7.45;;;45.30;99.90;;;;;;5085918;28;20230;-78
2023/08/19 11:47:19;;;;;;;8.43;7.07;;;45.60;99.90;;;;;;5070893;28;20227;-77
2023/08/19 11:50:10;;;;;;;11.82;7.40;;;46.60;99.90;;;;;;5066533;28;20228;-77
2023/08/19 11:52:59;;;;;;;8.35;7.05;;;47.30;99.90;;;;;;5083260;28;20230;-77
2023/08/19 11:55:52;;;;;;;12.00;7.13;;;47.10;99.90;;;;;;5064994;28;20252;-77
2023/08/19 11:58:42;;;;;;;8.15;6.47;;;47.30;99.90;;;;;;5089793;28;20215;-78
2023/08/19 12:01:37;;;;;;;12.68;7.18;;;48.00;99.90;;;;;;5078359;28;20239;-79
2023/08/19 12:04:25;;;;;;;8.23;6.97;;;48.00;99.90;;;;;;5079781;28;20222;-77
2023/08/19 12:07:14;;;;;;;10.23;7.13;;;48.10;99.90;;;;;;5073331;28;20215;-75
2023/08/19 12:10:04;;;;;;;7.70;6.93;;;48.50;99.90;;;;;;5071697;28;20224;-75
2023/08/19 12:13:01;;;;;;;12.05;7.50;;;47.50;99.90;;;;;;5076087;28;20219;-75
2023/08/19 12:15:50;;;;;;;9.60;6.45;;;46.90;99.90;;;;;;5076288;28;20234;-75
2023/08/19 12:18:39;;;;;;;8.85;6.85;;;45.80;99.90;;;;;;5078111;28;20242;-75
2023/08/19 12:21:31;;;;;;;7.85;7.15;;;44.40;99.90;;;;;;5073363;28;20811;-75
2023/08/19 12:24:20;;;;;;;12.48;6.88;;;40.90;99.90;;;;;;5061386;28;20222;-75
2023/08/19 12:27:09;;;;;;;7.63;6.85;;;38.80;99.90;;;;;;5094601;27;20226;-75
2023/08/19 12:30:00;;;;;;;7.97;7.28;;;37.50;99.90;;;;;;5061356;28;20223;-75
2023/08/19 12:32:49;;;;;;;8.38;7.30;;;36.60;99.90;;;;;;5087816;28;20693;-75
2023/08/19 12:35:37;;;;;;;10.82;7.97;;;36.00;99.90;;;;;;5070182;28;20225;-75
2023/08/19 12:38:26;;;;;;;9.25;8.15;;;35.10;99.90;;;;;;5066000;28;20706;-76
2023/08/19 12:41:15;;;;;;;11.30;8.50;;;34.60;99.90;;;;;;5080001;28;20227;-74
2023/08/19 12:44:04;;;;;;;15.05;8.90;;;34.30;99.90;;;;;;5080518;28;20219;-75
2023/08/19 12:46:56;;;;;;;10.95;8.70;;;33.80;99.90;;;;;;5055087;28;20231;-75
2023/08/19 12:49:45;;;;;;;13.50;9.77;;;33.40;99.90;;;;;;5089162;27;20689;-75
2023/08/19 12:52:34;;;;;;;11.45;9.38;;;33.20;99.90;;;;;;5077775;28;20605;-75
2023/08/19 12:55:25;;;;;;;10.30;8.98;;;32.90;99.90;;;;;;5082480;28;20903;-74
2023/08/19 12:58:14;;;;;;;10.15;9.05;;;32.70;99.90;;;;;;5076604;28;20267;-74
2023/08/19 13:01:04;;;;;;;16.77;10.60;;;32.40;99.90;;;;;;5076254;28;20970;-75
2023/08/19 13:03:55;;;;;;;15.00;9.68;;;32.30;99.90;;;;;;5084210;28;20227;-75
2023/08/19 13:06:46;;;;;;;19.40;10.73;;;32.00;99.90;;;;;;5073215;28;20241;-75
2023/08/19 13:09:35;;;;;;;12.85;9.85;;;31.80;99.90;;;;;;5062132;28;20231;-76
2023/08/19 13:12:23;;;;;;;14.85;10.68;;;31.80;99.90;;;;;;5083095;28;20229;-74
2023/08/19 13:15:15;;;;;;;12.10;9.32;;;31.50;99.90;;;;;;5080016;28;20226;-74
2023/08/19 13:18:05;;;;;;;11.88;9.15;;;31.20;99.90;;;;;;5065886;28;20252;-74
2023/08/19 13:20:55;;;;;;;10.43;9.52;;;30.70;99.90;;;;;;5074567;28;20525;-75
2023/08/19 13:23:44;;;;;;;12.23;9.80;;;30.40;99.90;;;;;;5068013;28;20223;-76
2023/08/19 13:26:33;;;;;;;13.18;11.10;;;30.10;99.90;;;;;;5074944;28;20229;-77
2023/08/19 13:29:22;;;;;;;23.13;13.52;;;29.80;99.90;;;;;;5078853;28;20760;-74
2023/08/19 13:32:11;;;;;;;21.52;13.50;;;29.40;1.00;;;;;;5087462;27;20224;-74
2023/08/19 13:35:00;;;;;;;18.05;13.75;;;28.90;1.00;;;;;;5078135;28;20225;-74
2023/08/19 13:37:52;;;;;;;15.07;12.68;;;28.50;1.00;;;;;;5068699;28;20301;-75
2023/08/19 13:40:41;;;;;;;16.05;14.27;;;27.80;1.00;;;;;;5060849;28;20218;-75
2023/08/19 13:43:31;;;;;;;15.30;13.77;;;27.60;1.00;;;;;;5079342;28;20340;-75
2023/08/19 13:46:20;;;;;;;14.60;13.15;;;27.70;1.00;;;;;;5076824;28;20219;-75
2023/08/19 13:49:09;;;;;;;13.43;12.18;;;28.00;95.10;;;;;;5055122;28;20634;-74
2023/08/19 13:51:58;;;;;;;11.30;10.20;;;28.10;64.50;;;;;;5062379;28;20591;-74
2023/08/19 13:54:48;;;;;;;13.27;10.10;;;28.10;1.00;;;;;;5077165;28;20214;-73
2023/08/19 13:57:38;;;;;;;11.95;10.77;;;28.30;1.00;;;;;;5055906;28;20258;-74
2023/08/19 14:00:27;;;;;;;10.55;9.55;;;28.20;1.00;;;;;;5075278;28;20621;-74
2023/08/19 14:03:18;;;;;;;9.15;8.27;;;28.40;1.00;;;;;;5076046;28;20211;-74
2023/08/19 14:06:07;;;;;;;12.05;9.95;;;28.30;1.00;;;;;;5076306;28;20229;-74
2023/08/19 14:08:56;;;;;;;11.75;10.57;;;28.30;1.00;;;;;;5075657;28;20340;-75
2023/08/19 14:11:46;;;;;;;13.93;10.65;;;28.30;1.00;;;;;;5058930;28;20712;-74
2023/08/19 14:14:36;;;;;;;12.65;11.48;;;28.30;1.00;;;;;;5073462;28;20283;-79
2023/08/19 14:17:26;;;;;;;11.73;10.52;;;28.20;1.00;;;;;;5076784;28;20215;-78
2023/08/19 14:20:16;;;;;;;12.27;11.10;;;28.20;1.00;;;;;;5063464;28;20219;-80
2023/08/19 14:23:05;;;;;;;11.45;10.32;;;28.20;1.00;;;;;;5080949;28;20226;-79
2023/08/19 14:25:54;;;;;;;12.98;10.70;;;28.10;1.00;;;;;;5063608;28;20229;-79
2023/08/19 14:28:44;;;;;;;10.35;9.35;;;28.00;1.00;;;;;;5060646;28;20355;-79
2023/08/19 14:31:33;;;;;;;10.85;9.60;;;28.00;1.00;;;;;;5076892;28;20244;-77
2023/08/19 14:34:22;;;;;;;13.30;10.55;;;27.90;1.00;;;;;;5061118;28;20256;-78